Time;durP1;ratioP1;P1;durP2;ratioP2;P2;SDS_P1;SDS_P2;PMS_P1;PMS_P2;Temp;Humidity;BMP_temperature;BMP_pressure;BME280_temperature;BME280_humidity;BME280_pressure;Samples;Min_cycle;Max_cycle;Signal;HPM_P1;HPM_P2
2023/08/20 00:01:56;;;;;;;13.23;11.02;;;26.40;99.90;;;;;;5051414;28;20108;-63
2023/08/20 00:04:27;;;;;;;11.02;8.45;;;26.40;99.90;;;;;;5053233;28;20047;-63
2023/08/20 00:06:54;;;;;;;8.88;7.18;;;26.30;99.90;;;;;;5045264;28;20045;-58
2023/08/20 00:09:20;;;;;;;10.35;6.38;;;26.40;99.90;;;;;;5052893;28;20043;-59
2023/08/20 00:11:46;;;;;;;9.25;6.00;;;26.40;99.90;;;;;;5050401;28;20047;-53
2023/08/20 00:14:16;;;;;;;8.85;5.28;;;26.50;99.90;;;;;;5056006;28;20573;-57
2023/08/20 00:16:44;;;;;;;10.93;6.07;;;26.50;99.90;;;;;;5049795;28;20076;-56
2023/08/20 00:19:11;;;;;;;9.05;6.18;;;26.50;99.90;;;;;;5049236;28;20040;-58
2023/08/20 00:21:42;;;;;;;11.05;7.13;;;26.60;99.90;;;;;;5053429;28;20079;-57
2023/08/20 00:24:09;;;;;;;11.52;8.75;;;26.60;99.90;;;;;;5050899;28;20008;-55
2023/08/20 00:26:36;;;;;;;10.55;8.43;;;26.60;99.90;;;;;;5049605;28;20039;-56
2023/08/20 00:29:03;;;;;;;13.38;8.98;;;26.70;99.90;;;;;;5048476;28;20075;-58
2023/08/20 00:31:29;;;;;;;14.40;8.43;;;26.60;99.90;;;;;;5051753;28;20054;-57
2023/08/20 00:33:56;;;;;;;8.38;6.00;;;26.60;99.90;;;;;;5053214;28;20059;-59
2023/08/20 00:36:22;;;;;;;11.60;5.47;;;26.60;99.90;;;;;;5055302;28;20052;-58
2023/08/20 00:38:48;;;;;;;8.27;4.78;;;26.50;99.90;;;;;;5047742;28;20187;-60
2023/08/20 00:41:15;;;;;;;8.10;5.05;;;26.50;99.90;;;;;;5053739;28;20056;-57
2023/08/20 00:43:41;;;;;;;6.28;4.22;;;26.50;99.90;;;;;;5046777;28;20102;-59
2023/08/20 00:46:10;;;;;;;6.32;4.40;;;26.50;99.90;;;;;;5045307;28;20464;-56
2023/08/20 00:48:36;;;;;;;9.13;4.90;;;26.60;99.90;;;;;;5048898;28;20117;-56
2023/08/20 00:51:03;;;;;;;9.98;5.43;;;26.50;99.90;;;;;;5053964;28;20477;-58
2023/08/20 00:53:29;;;;;;;5.15;3.13;;;26.60;99.90;;;;;;5051911;28;20055;-58
2023/08/20 00:55:56;;;;;;;4.18;1.95;;;26.70;99.90;;;;;;5053823;28;20052;-56
2023/08/20 00:58:22;;;;;;;4.53;1.83;;;26.60;99.90;;;;;;5045359;28;20060;-56
2023/08/20 01:00:48;;;;;;;3.58;1.80;;;26.60;99.90;;;;;;5052763;28;20048;-57
2023/08/20 01:03:15;;;;;;;6.95;2.08;;;26.60;99.90;;;;;;5045954;28;20512;-61
2023/08/20 01:05:51;;;;;;;5.22;2.00;;;26.50;99.90;;;;;;5047298;28;20071;-60
2023/08/20 01:08:27;;;;;;;4.95;2.53;;;26.60;99.90;;;;;;5045430;28;20478;-60
2023/08/20 01:11:00;;;;;;;7.93;2.40;;;26.60;99.90;;;;;;5047965;28;20126;-60
2023/08/20 01:13:26;;;;;;;5.95;2.20;;;26.60;99.90;;;;;;5049478;28;20048;-59
2023/08/20 01:15:53;;;;;;;6.00;2.30;;;26.60;99.90;;;;;;5051202;28;20074;-60
2023/08/20 01:18:19;;;;;;;6.32;2.40;;;26.60;99.90;;;;;;5047815;28;20049;-60
2023/08/20 01:20:52;;;;;;;8.15;2.67;;;26.50;99.90;;;;;;5046408;28;20536;-56
2023/08/20 01:23:44;;;;;;;5.53;2.55;;;26.50;99.90;;;;;;5052528;28;20524;-58
2023/08/20 01:26:46;;;;;;;6.93;2.80;;;26.50;99.90;;;;;;5049029;28;20134;-57
2023/08/20 01:29:13;;;;;;;5.30;2.72;;;26.50;99.90;;;;;;5051602;28;20037;-56
2023/08/20 01:31:40;;;;;;;4.70;1.75;;;26.50;99.90;;;;;;5055399;28;20047;-60
2023/08/20 01:34:07;;;;;;;3.78;1.98;;;26.50;99.90;;;;;;5052511;28;20042;-55
2023/08/20 01:36:33;;;;;;;6.03;1.83;;;26.40;99.90;;;;;;5051311;28;20044;-58
2023/08/20 01:39:00;;;;;;;3.55;1.80;;;26.40;99.90;;;;;;5052594;28;20044;-60
2023/08/20 01:41:26;;;;;;;5.53;2.28;;;26.50;99.90;;;;;;5054182;28;20101;-58
2023/08/20 01:43:52;;;;;;;3.50;2.13;;;26.50;99.90;;;;;;5054855;28;20024;-56
2023/08/20 01:46:19;;;;;;;6.07;2.13;;;26.40;99.90;;;;;;5052227;28;20074;-58
2023/08/20 01:48:45;;;;;;;5.22;2.20;;;26.40;99.90;;;;;;5055166;28;20120;-61
2023/08/20 01:51:11;;;;;;;4.55;2.22;;;26.40;99.90;;;;;;5055329;28;20063;-54
2023/08/20 01:53:38;;;;;;;5.38;2.00;;;26.40;99.90;;;;;;5053196;28;20094;-58
2023/08/20 01:56:04;;;;;;;3.50;2.20;;;26.40;99.90;;;;;;5054155;28;20020;-57
2023/08/20 01:58:32;;;;;;;5.85;2.63;;;26.40;99.90;;;;;;5054487;28;20042;-59
2023/08/20 02:00:58;;;;;;;4.22;2.50;;;26.30;99.90;;;;;;5051533;28;20054;-58
2023/08/20 02:03:24;;;;;;;3.40;2.05;;;26.40;99.90;;;;;;5052793;28;20040;-58
2023/08/20 02:05:51;;;;;;;5.30;2.28;;;26.40;99.90;;;;;;5051081;28;20036;-58
2023/08/20 02:08:17;;;;;;;5.38;2.35;;;26.40;99.90;;;;;;5048932;28;20056;-58
2023/08/20 02:10:44;;;;;;;5.50;2.33;;;26.40;99.90;;;;;;5049094;28;20040;-58
2023/08/20 02:13:10;;;;;;;6.20;2.53;;;26.40;99.90;;;;;;5056630;28;20126;-58
2023/08/20 02:15:36;;;;;;;4.05;1.88;;;26.40;99.90;;;;;;5057836;28;20435;-60
2023/08/20 02:18:03;;;;;;;9.32;2.45;;;26.30;99.90;;;;;;5057226;28;20189;-59
2023/08/20 02:20:29;;;;;;;4.63;2.08;;;26.40;99.90;;;;;;5050846;28;20040;-60
2023/08/20 02:22:56;;;;;;;6.55;1.90;;;26.30;99.90;;;;;;5051428;28;20088;-57
2023/08/20 02:25:24;;;;;;;3.92;2.42;;;26.30;99.90;;;;;;5051297;28;20046;-57
2023/08/20 02:27:51;;;;;;;9.05;2.65;;;26.20;99.90;;;;;;5049823;28;20051;-59
2023/08/20 02:30:17;;;;;;;4.78;2.30;;;26.40;99.90;;;;;;5066773;28;20063;-66
2023/08/20 02:32:43;;;;;;;7.88;2.45;;;26.80;99.90;;;;;;5056967;28;20020;-62
2023/08/20 02:35:14;;;;;;;7.40;2.45;;;27.20;99.90;;;;;;5054902;28;20047;-61
2023/08/20 02:37:41;;;;;;;9.00;2.17;;;27.50;99.90;;;;;;5048276;28;20010;-63
2023/08/20 02:40:08;;;;;;;9.02;2.97;;;27.70;99.90;;;;;;5048185;28;20393;-61
2023/08/20 02:42:34;;;;;;;4.43;2.40;;;27.70;99.90;;;;;;5052077;28;20059;-58
2023/08/20 02:45:01;;;;;;;7.32;2.58;;;27.50;99.90;;;;;;5046036;28;20017;-61
2023/08/20 02:47:27;;;;;;;6.05;2.88;;;27.60;99.90;;;;;;5046220;28;20484;-63
2023/08/20 02:49:54;;;;;;;9.88;3.20;;;27.60;99.90;;;;;;5045239;28;20078;-61
2023/08/20 02:52:20;;;;;;;9.35;4.82;;;27.80;99.90;;;;;;5045801;28;20032;-60
2023/08/20 02:54:47;;;;;;;8.15;4.57;;;27.70;99.90;;;;;;5045358;28;20021;-62
2023/08/20 02:57:13;;;;;;;10.40;6.00;;;27.70;99.90;;;;;;5044869;28;20021;-57
2023/08/20 02:59:40;;;;;;;12.82;7.43;;;27.60;99.90;;;;;;5044910;28;20413;-57
2023/08/20 03:02:06;;;;;;;9.77;6.50;;;27.60;99.90;;;;;;5049679;28;20031;-58
2023/08/20 03:04:32;;;;;;;13.68;6.07;;;27.50;99.90;;;;;;5050343;28;20019;-59
2023/08/20 03:06:59;;;;;;;9.07;6.90;;;27.40;99.90;;;;;;5048352;28;20024;-62
2023/08/20 03:09:25;;;;;;;10.80;6.20;;;27.30;99.90;;;;;;5050691;28;20452;-62
2023/08/20 03:11:51;;;;;;;8.27;4.90;;;27.10;99.90;;;;;;5056755;28;20042;-60
2023/08/20 03:14:18;;;;;;;8.30;5.43;;;27.10;99.90;;;;;;5059364;28;20535;-59
2023/08/20 03:16:44;;;;;;;10.20;4.72;;;27.00;99.90;;;;;;5049472;28;20127;-57
2023/08/20 03:19:10;;;;;;;9.13;5.70;;;26.80;99.90;;;;;;5056315;28;20433;-58
2023/08/20 03:21:37;;;;;;;10.77;5.90;;;26.60;99.90;;;;;;5039447;28;20061;-60
2023/08/20 03:24:04;;;;;;;7.78;5.00;;;26.50;99.90;;;;;;5055788;28;20051;-58
2023/08/20 03:26:30;;;;;;;8.05;5.57;;;26.40;99.90;;;;;;5054896;28;20055;-59
2023/08/20 03:28:57;;;;;;;6.47;4.35;;;26.40;99.90;;;;;;5054786;28;20045;-60
2023/08/20 03:31:24;;;;;;;8.68;5.30;;;26.30;99.90;;;;;;5048913;28;20049;-58
2023/08/20 03:33:50;;;;;;;9.57;4.82;;;26.20;99.90;;;;;;5052793;28;20159;-59
2023/08/20 03:36:16;;;;;;;9.68;5.03;;;26.30;99.90;;;;;;5051276;28;20069;-62
2023/08/20 03:38:43;;;;;;;9.65;5.25;;;26.20;99.90;;;;;;5047548;28;20501;-60
2023/08/20 03:41:09;;;;;;;8.45;4.40;;;26.20;99.90;;;;;;5049671;28;20065;-60
2023/08/20 03:43:36;;;;;;;6.50;4.25;;;26.20;99.90;;;;;;5052775;28;20041;-59
2023/08/20 03:46:02;;;;;;;12.05;5.18;;;26.10;99.90;;;;;;5055649;28;20040;-59
2023/08/20 03:48:29;;;;;;;8.05;5.45;;;26.20;99.90;;;;;;5053920;28;20215;-58
2023/08/20 03:50:56;;;;;;;11.20;6.95;;;26.20;99.90;;;;;;5051123;28;20041;-58
2023/08/20 03:53:23;;;;;;;9.20;6.82;;;26.10;99.90;;;;;;5048307;28;20050;-59
2023/08/20 03:55:50;;;;;;;10.23;8.63;;;26.00;99.90;;;;;;5048113;28;20053;-61
2023/08/20 03:58:17;;;;;;;13.25;8.20;;;26.00;99.90;;;;;;5056513;28;20047;-58
2023/08/20 04:00:44;;;;;;;13.55;9.25;;;26.00;99.90;;;;;;5040807;28;20044;-61
2023/08/20 04:03:10;;;;;;;11.63;9.00;;;26.00;99.90;;;;;;5047819;28;20524;-61
2023/08/20 04:05:40;;;;;;;12.13;8.05;;;26.00;99.90;;;;;;5045637;28;20044;-61
2023/08/20 04:08:07;;;;;;;13.07;8.20;;;25.90;99.90;;;;;;5053011;28;20080;-56
2023/08/20 04:10:33;;;;;;;8.73;7.45;;;25.80;99.90;;;;;;5054761;28;20042;-60
2023/08/20 04:13:00;;;;;;;11.70;6.90;;;25.60;99.90;;;;;;5053400;28;20093;-62
2023/08/20 04:15:26;;;;;;;10.05;6.88;;;25.60;99.90;;;;;;5049617;28;20050;-61
2023/08/20 04:17:52;;;;;;;16.02;8.73;;;25.70;99.90;;;;;;5050592;28;20542;-63
2023/08/20 04:20:19;;;;;;;13.30;7.90;;;25.70;99.90;;;;;;5043801;28;20056;-58
2023/08/20 04:22:45;;;;;;;12.18;8.23;;;25.80;99.90;;;;;;5050499;28;20057;-60
2023/08/20 04:25:12;;;;;;;12.18;8.30;;;25.90;99.90;;;;;;5048871;28;20652;-60
2023/08/20 04:27:38;;;;;;;12.15;7.68;;;25.90;99.90;;;;;;5051319;28;20042;-58
2023/08/20 04:30:06;;;;;;;12.32;8.20;;;25.90;99.90;;;;;;5047802;28;20051;-60
2023/08/20 04:32:32;;;;;;;13.13;9.85;;;25.80;99.90;;;;;;5048335;28;20083;-57
2023/08/20 04:34:59;;;;;;;14.35;9.73;;;25.90;99.90;;;;;;5055108;28;20434;-61
2023/08/20 04:37:25;;;;;;;15.50;9.82;;;25.90;99.90;;;;;;5048168;28;20043;-61
2023/08/20 04:39:52;;;;;;;16.75;8.90;;;25.90;99.90;;;;;;5050605;28;20050;-61
2023/08/20 04:42:18;;;;;;;15.60;10.00;;;25.90;99.90;;;;;;5049431;28;20064;-58
2023/08/20 04:44:45;;;;;;;15.23;10.60;;;25.80;99.90;;;;;;5054685;28;20452;-58
2023/08/20 04:47:14;;;;;;;16.77;11.35;;;25.70;99.90;;;;;;5049737;28;20383;-53
2023/08/20 04:49:41;;;;;;;17.15;13.23;;;25.80;99.90;;;;;;5052015;28;20156;-60
2023/08/20 04:52:07;;;;;;;17.60;11.43;;;25.80;99.90;;;;;;5050354;28;20054;-61
2023/08/20 04:54:33;;;;;;;15.60;9.75;;;25.90;99.90;;;;;;5053177;28;20050;-62
2023/08/20 04:57:00;;;;;;;14.02;9.20;;;25.80;99.90;;;;;;5049264;28;20071;-61
2023/08/20 04:59:26;;;;;;;16.67;10.00;;;25.60;99.90;;;;;;5056278;28;20504;-63
2023/08/20 05:01:52;;;;;;;16.75;10.32;;;25.60;99.90;;;;;;5047193;28;20505;-66
2023/08/20 05:04:19;;;;;;;13.32;9.38;;;25.70;99.90;;;;;;5049527;28;20056;-61
2023/08/20 05:06:45;;;;;;;16.90;12.23;;;25.60;99.90;;;;;;5046998;28;20044;-62
2023/08/20 05:09:12;;;;;;;14.43;11.15;;;25.60;99.90;;;;;;5053032;28;20059;-59
2023/08/20 05:11:38;;;;;;;15.45;12.30;;;25.70;99.90;;;;;;5054961;28;20048;-61
2023/08/20 05:14:05;;;;;;;20.58;14.02;;;25.70;99.90;;;;;;5051605;28;20566;-60
2023/08/20 05:16:31;;;;;;;18.13;15.63;;;25.60;99.90;;;;;;5053209;28;20047;-65
2023/08/20 05:18:57;;;;;;;17.50;14.55;;;25.60;99.90;;;;;;5052753;28;20553;-60
2023/08/20 05:21:24;;;;;;;18.55;14.68;;;25.70;99.90;;;;;;5055360;28;20074;-64
2023/08/20 05:23:50;;;;;;;15.57;13.75;;;25.70;99.90;;;;;;5053801;28;20049;-62
2023/08/20 05:26:17;;;;;;;16.75;13.35;;;25.60;99.90;;;;;;5063108;28;20598;-60
2023/08/20 05:28:43;;;;;;;17.52;13.35;;;25.60;99.90;;;;;;5053584;28;20051;-62
2023/08/20 05:31:10;;;;;;;17.88;14.05;;;25.60;99.90;;;;;;5054837;28;20065;-64
2023/08/20 05:33:37;;;;;;;21.02;14.43;;;25.60;99.90;;;;;;5057464;28;20550;-60
2023/08/20 05:36:03;;;;;;;16.98;12.25;;;25.50;99.90;;;;;;5051746;28;20120;-62
2023/08/20 05:38:29;;;;;;;13.43;9.65;;;25.40;99.90;;;;;;5051951;28;20470;-61
2023/08/20 05:40:56;;;;;;;9.07;7.63;;;25.30;99.90;;;;;;5052747;28;20050;-56
2023/08/20 05:43:22;;;;;;;9.73;6.65;;;25.20;99.90;;;;;;5050193;28;20526;-55
2023/08/20 05:45:48;;;;;;;9.40;6.88;;;25.20;99.90;;;;;;5055200;28;20120;-61
2023/08/20 05:48:15;;;;;;;12.00;8.60;;;25.20;99.90;;;;;;5056375;28;20080;-56
2023/08/20 05:50:42;;;;;;;13.25;10.20;;;25.20;99.90;;;;;;5057989;28;20063;-61
2023/08/20 05:53:08;;;;;;;15.43;12.75;;;25.10;99.90;;;;;;5053287;28;20052;-60
2023/08/20 05:55:35;;;;;;;20.73;15.13;;;25.10;99.90;;;;;;5057299;28;20075;-63
2023/08/20 05:58:02;;;;;;;23.30;17.45;;;25.20;99.90;;;;;;5050383;28;20042;-62
2023/08/20 06:00:28;;;;;;;21.48;18.02;;;25.10;99.90;;;;;;5055524;28;20039;-63
2023/08/20 06:02:54;;;;;;;24.40;19.05;;;25.20;99.90;;;;;;5050167;28;20055;-63
2023/08/20 06:05:21;;;;;;;23.52;19.67;;;25.20;99.90;;;;;;5051334;28;20258;-60
2023/08/20 06:07:47;;;;;;;25.65;20.15;;;25.10;99.90;;;;;;5050487;28;20062;-63
2023/08/20 06:10:14;;;;;;;22.60;19.88;;;25.10;99.90;;;;;;5049001;28;20044;-64
2023/08/20 06:12:40;;;;;;;15.93;13.88;;;25.10;99.90;;;;;;5057115;28;20403;-62
2023/08/20 06:15:07;;;;;;;16.75;11.45;;;25.10;99.90;;;;;;5047628;28;20095;-63
2023/08/20 06:17:34;;;;;;;10.43;9.15;;;25.10;99.90;;;;;;5046561;28;20409;-64
2023/08/20 06:20:00;;;;;;;11.68;8.35;;;25.10;99.90;;;;;;5050595;28;20103;-61
2023/08/20 06:22:27;;;;;;;10.75;7.03;;;25.10;99.90;;;;;;5051564;28;20174;-65
2023/08/20 06:24:53;;;;;;;10.68;6.80;;;25.10;99.90;;;;;;5045190;28;20504;-62
2023/08/20 06:27:19;;;;;;;11.43;6.82;;;25.10;99.90;;;;;;5047186;28;20060;-62
2023/08/20 06:29:46;;;;;;;9.65;7.78;;;25.10;99.90;;;;;;5049858;28;20042;-64
2023/08/20 06:32:12;;;;;;;13.38;10.48;;;25.10;99.90;;;;;;5051436;28;20047;-63
2023/08/20 06:34:39;;;;;;;18.67;15.05;;;25.10;99.90;;;;;;5050766;28;20114;-64
2023/08/20 06:37:05;;;;;;;19.33;14.93;;;25.00;99.90;;;;;;5055546;28;20042;-58
2023/08/20 06:39:31;;;;;;;29.13;24.25;;;25.00;99.90;;;;;;5050872;28;20047;-61
2023/08/20 06:41:58;;;;;;;34.17;28.67;;;25.00;99.90;;;;;;5048315;28;20109;-64
2023/08/20 06:44:24;;;;;;;41.00;33.22;;;25.00;99.90;;;;;;5047341;28;20041;-59
2023/08/20 06:46:51;;;;;;;48.30;39.45;;;25.00;99.90;;;;;;5049023;28;20056;-61
2023/08/20 06:49:17;;;;;;;51.38;40.72;;;25.00;99.90;;;;;;5050405;28;20103;-57
2023/08/20 06:51:43;;;;;;;47.60;39.35;;;24.90;99.90;;;;;;5043803;28;20050;-60
2023/08/20 06:54:10;;;;;;;56.40;43.15;;;24.90;99.90;;;;;;5046742;28;20059;-58
2023/08/20 06:56:36;;;;;;;47.15;39.58;;;24.80;99.90;;;;;;5050268;28;20192;-55
2023/08/20 06:59:03;;;;;;;47.20;40.15;;;24.80;99.90;;;;;;5044643;28;20045;-62
2023/08/20 07:01:29;;;;;;;49.08;40.17;;;24.90;99.90;;;;;;5040782;28;20061;-62
2023/08/20 07:03:56;;;;;;;45.47;37.95;;;24.90;99.90;;;;;;5044852;28;20401;-60
2023/08/20 07:06:22;;;;;;;43.67;37.65;;;24.90;99.90;;;;;;5045435;28;20055;-63
2023/08/20 07:08:50;;;;;;;46.85;37.35;;;24.80;99.90;;;;;;5043947;28;20038;-60
2023/08/20 07:11:16;;;;;;;45.72;39.05;;;24.70;99.90;;;;;;5045605;28;20041;-63
2023/08/20 07:13:43;;;;;;;40.88;35.53;;;24.80;99.90;;;;;;5048257;28;20044;-64
2023/08/20 07:16:09;;;;;;;41.28;34.03;;;24.80;99.90;;;;;;5046141;28;20444;-62
2023/08/20 07:18:36;;;;;;;41.67;32.92;;;24.90;99.90;;;;;;5045299;28;20044;-66
2023/08/20 07:21:03;;;;;;;40.55;32.05;;;24.80;99.90;;;;;;5044133;28;20133;-61
2023/08/20 07:23:29;;;;;;;35.35;29.58;;;24.80;99.90;;;;;;5045996;28;20080;-63
2023/08/20 07:26:10;;;;;;;34.42;28.05;;;24.80;99.90;;;;;;5047963;28;20512;-64
2023/08/20 07:31:21;;;;;;;35.60;29.50;;;24.80;99.90;;;;;;5048212;28;20192;-58
2023/08/20 07:33:49;;;;;;;38.85;28.35;;;24.80;99.90;;;;;;5043539;28;20590;-56
2023/08/20 07:36:16;;;;;;;28.85;24.27;;;24.90;99.90;;;;;;5045650;28;20510;-62
2023/08/20 07:38:43;;;;;;;26.70;21.88;;;24.90;99.90;;;;;;5043180;28;20107;-61
2023/08/20 07:41:11;;;;;;;26.80;22.23;;;24.90;99.90;;;;;;5048205;28;20481;-61
2023/08/20 07:43:41;;;;;;;26.35;20.55;;;25.00;99.90;;;;;;5045522;28;20514;-61
2023/08/20 07:46:08;;;;;;;22.33;19.92;;;24.90;99.90;;;;;;5042608;28;20473;-61
2023/08/20 07:48:35;;;;;;;20.17;18.08;;;24.90;99.90;;;;;;5048035;28;20089;-61
2023/08/20 07:51:02;;;;;;;16.83;15.00;;;24.90;99.90;;;;;;5050343;28;20054;-60
2023/08/20 07:53:30;;;;;;;16.38;13.63;;;24.90;99.90;;;;;;5042513;28;20044;-60
2023/08/20 07:55:56;;;;;;;15.45;13.50;;;24.90;99.90;;;;;;5045948;28;20044;-62
2023/08/20 07:58:23;;;;;;;18.40;15.88;;;24.90;99.90;;;;;;5046554;28;20120;-61
2023/08/20 08:00:49;;;;;;;18.33;16.25;;;24.80;99.90;;;;;;5044155;28;20037;-64
2023/08/20 08:03:16;;;;;;;19.80;17.75;;;24.80;99.90;;;;;;5045296;28;20060;-64
2023/08/20 08:05:52;;;;;;;21.35;19.15;;;24.80;99.90;;;;;;5049022;28;20047;-63
2023/08/20 08:08:20;;;;;;;25.52;19.85;;;24.90;99.90;;;;;;5047778;28;20570;-61
2023/08/20 08:10:46;;;;;;;17.38;15.57;;;24.90;99.90;;;;;;5043364;28;20123;-61
2023/08/20 08:13:19;;;;;;;18.40;15.88;;;24.90;99.90;;;;;;5044270;28;20077;-62
2023/08/20 08:15:49;;;;;;;15.43;13.68;;;24.80;99.90;;;;;;5045605;28;20071;-64
2023/08/20 08:18:15;;;;;;;14.52;13.10;;;24.90;99.90;;;;;;5046231;28;20134;-62
2023/08/20 08:20:41;;;;;;;11.15;10.05;;;24.80;99.90;;;;;;5045116;28;20076;-62
2023/08/20 08:23:08;;;;;;;11.85;9.25;;;24.80;99.90;;;;;;5044215;28;20115;-61
2023/08/20 08:25:34;;;;;;;10.02;7.78;;;24.80;99.90;;;;;;5046848;28;20065;-60
2023/08/20 08:28:01;;;;;;;9.35;7.00;;;24.70;99.90;;;;;;5047053;28;20517;-61
2023/08/20 08:30:29;;;;;;;8.80;6.72;;;24.70;99.90;;;;;;5047977;28;20075;-59
2023/08/20 08:32:55;;;;;;;7.28;5.97;;;24.70;99.90;;;;;;5047656;28;20046;-60
2023/08/20 08:35:22;;;;;;;11.27;6.43;;;24.70;99.90;;;;;;5043779;28;20137;-58
2023/08/20 08:37:48;;;;;;;8.25;6.15;;;24.70;99.90;;;;;;5046059;28;20080;-63
2023/08/20 08:40:15;;;;;;;7.93;6.10;;;24.60;99.90;;;;;;5045348;28;20436;-63
2023/08/20 08:42:42;;;;;;;10.10;6.72;;;24.70;99.90;;;;;;5045794;28;20085;-61
2023/08/20 08:45:10;;;;;;;9.38;7.10;;;24.80;99.90;;;;;;5044519;28;20057;-62
2023/08/20 08:47:39;;;;;;;10.30;6.30;;;24.70;99.90;;;;;;5045611;28;20049;-60
2023/08/20 08:50:07;;;;;;;12.77;7.15;;;24.70;99.90;;;;;;5043845;28;20056;-59
2023/08/20 08:52:35;;;;;;;11.05;7.30;;;24.60;99.90;;;;;;5037075;28;20099;-60
2023/08/20 08:55:03;;;;;;;9.95;6.80;;;24.60;99.90;;;;;;5045262;28;20061;-61
2023/08/20 08:57:30;;;;;;;8.93;7.03;;;24.50;99.90;;;;;;5042792;28;20053;-58
2023/08/20 08:59:57;;;;;;;10.73;7.22;;;24.50;99.90;;;;;;5046855;28;20046;-61
2023/08/20 09:02:23;;;;;;;10.35;7.38;;;24.50;99.90;;;;;;5048686;28;20058;-60
2023/08/20 09:04:50;;;;;;;10.07;7.53;;;24.40;99.90;;;;;;5048265;28;20507;-60
2023/08/20 09:07:16;;;;;;;11.38;7.93;;;24.50;99.90;;;;;;5043312;28;20122;-61
2023/08/20 09:09:46;;;;;;;11.23;8.25;;;24.50;99.90;;;;;;5050234;28;20049;-60
2023/08/20 09:12:17;;;;;;;9.70;8.32;;;24.40;99.90;;;;;;5047485;28;20046;-59
2023/08/20 09:14:49;;;;;;;11.88;8.18;;;24.40;99.90;;;;;;5047891;28;20568;-61
2023/08/20 09:17:16;;;;;;;10.52;7.78;;;24.40;99.90;;;;;;5046635;28;20050;-61
2023/08/20 09:19:45;;;;;;;12.82;9.05;;;24.40;99.90;;;;;;5046567;28;20041;-55
2023/08/20 09:22:13;;;;;;;12.85;8.75;;;24.40;99.90;;;;;;5042743;28;20058;-58
2023/08/20 09:24:47;;;;;;;10.13;8.82;;;24.30;99.90;;;;;;5042711;28;20140;-60
2023/08/20 09:27:14;;;;;;;11.75;8.57;;;24.30;99.90;;;;;;5046015;28;20042;-58
2023/08/20 09:29:50;;;;;;;13.30;8.77;;;24.30;99.90;;;;;;5047720;28;20037;-60
2023/08/20 09:32:22;;;;;;;10.90;9.07;;;24.30;99.90;;;;;;5046500;28;20060;-59
2023/08/20 09:34:53;;;;;;;10.90;8.35;;;24.30;99.90;;;;;;5043461;28;20066;-59
2023/08/20 09:37:23;;;;;;;11.63;9.10;;;24.30;99.90;;;;;;5045755;28;20054;-59
2023/08/20 09:39:50;;;;;;;12.20;9.88;;;24.30;99.90;;;;;;5047688;28;20056;-57
2023/08/20 09:42:17;;;;;;;11.15;9.38;;;24.30;99.90;;;;;;5045649;28;20129;-59
2023/08/20 09:44:45;;;;;;;12.02;9.75;;;24.30;99.90;;;;;;5047798;28;20386;-61
2023/08/20 09:47:15;;;;;;;11.23;10.07;;;24.30;99.90;;;;;;5044256;28;20038;-56
2023/08/20 09:49:44;;;;;;;11.55;10.10;;;24.30;99.90;;;;;;5044799;28;20061;-59
2023/08/20 09:52:15;;;;;;;13.65;11.57;;;24.30;99.90;;;;;;5045824;28;20736;-62
2023/08/20 09:54:57;;;;;;;14.52;11.23;;;24.30;99.90;;;;;;5044470;28;20054;-59
2023/08/20 09:57:34;;;;;;;12.27;9.85;;;24.20;99.90;;;;;;5043686;28;20529;-58
2023/08/20 10:00:03;;;;;;;11.35;9.50;;;24.20;99.90;;;;;;5047551;28;20354;-59
2023/08/20 10:02:30;;;;;;;12.75;9.98;;;24.20;99.90;;;;;;5047854;28;20081;-61
2023/08/20 10:04:56;;;;;;;11.48;8.48;;;24.20;99.90;;;;;;5048992;28;20034;-59
2023/08/20 10:07:25;;;;;;;10.43;9.10;;;24.20;99.90;;;;;;5047229;28;20154;-60
2023/08/20 10:09:52;;;;;;;11.38;9.35;;;24.20;99.90;;;;;;5047005;28;20046;-59
2023/08/20 10:12:19;;;;;;;12.73;9.27;;;24.20;99.90;;;;;;5051375;28;20052;-61
2023/08/20 10:14:46;;;;;;;11.20;9.20;;;24.20;99.90;;;;;;5046489;28;20460;-59
2023/08/20 10:17:15;;;;;;;11.40;9.77;;;24.20;99.90;;;;;;5047789;28;20079;-59
2023/08/20 10:19:42;;;;;;;11.65;10.43;;;24.20;99.90;;;;;;5053561;28;20047;-58
2023/08/20 10:22:08;;;;;;;14.82;12.48;;;24.10;99.90;;;;;;5047498;28;20127;-60
2023/08/20 10:24:53;;;;;;;20.35;17.00;;;24.20;99.90;;;;;;5049122;28;20516;-60
2023/08/20 10:27:32;;;;;;;22.17;18.63;;;24.20;99.90;;;;;;5048905;28;20061;-59
2023/08/20 10:30:00;;;;;;;22.15;18.63;;;24.20;99.90;;;;;;5048142;28;20162;-58
2023/08/20 10:32:47;;;;;;;24.52;20.35;;;24.20;99.90;;;;;;5048217;28;20050;-57
2023/08/20 10:35:22;;;;;;;24.05;20.20;;;24.20;99.90;;;;;;5044214;28;20061;-59
2023/08/20 10:38:05;;;;;;;24.65;22.05;;;24.20;99.90;;;;;;5047698;28;20053;-61
2023/08/20 10:40:56;;;;;;;24.50;21.98;;;24.20;99.90;;;;;;5049272;28;20391;-60
2023/08/20 10:43:38;;;;;;;27.05;22.70;;;24.20;99.90;;;;;;5047778;28;20067;-57
2023/08/20 10:46:23;;;;;;;26.40;23.60;;;24.20;99.90;;;;;;5045019;28;20049;-59
2023/08/20 10:48:52;;;;;;;23.83;20.45;;;24.10;99.90;;;;;;5048808;28;20157;-58
2023/08/20 10:51:19;;;;;;;22.02;17.95;;;24.20;99.90;;;;;;5045538;28;20097;-61
2023/08/20 10:54:00;;;;;;;21.73;17.48;;;24.20;99.90;;;;;;5048059;28;20529;-59
2023/08/20 10:56:46;;;;;;;19.55;16.80;;;24.10;99.90;;;;;;5047896;28;20087;-59
2023/08/20 10:59:22;;;;;;;18.67;14.93;;;24.20;99.90;;;;;;5047853;28;20047;-59
2023/08/20 11:01:54;;;;;;;16.52;13.00;;;24.20;99.90;;;;;;5048103;28;20072;-57
2023/08/20 11:04:28;;;;;;;14.35;12.27;;;24.10;99.90;;;;;;5047134;28;20496;-58
2023/08/20 11:06:56;;;;;;;15.43;11.07;;;24.20;99.90;;;;;;5047883;28;20064;-59
2023/08/20 11:09:27;;;;;;;13.48;11.35;;;24.20;99.90;;;;;;5044675;28;20039;-61
2023/08/20 11:11:54;;;;;;;12.57;11.23;;;24.20;99.90;;;;;;5046482;28;20045;-59
2023/08/20 11:14:21;;;;;;;12.45;10.35;;;24.30;99.90;;;;;;5045877;28;20060;-59
2023/08/20 11:16:49;;;;;;;12.07;10.18;;;24.30;99.90;;;;;;5046621;28;20664;-61
2023/08/20 11:19:23;;;;;;;11.75;10.50;;;24.30;99.90;;;;;;5047618;28;20537;-60
2023/08/20 11:21:50;;;;;;;12.50;10.52;;;24.30;99.90;;;;;;5049154;28;20063;-60
2023/08/20 11:24:17;;;;;;;11.75;10.18;;;24.30;99.90;;;;;;5046037;28;20069;-58
2023/08/20 11:26:44;;;;;;;12.18;9.98;;;24.30;99.90;;;;;;5050062;28;20056;-57
2023/08/20 11:29:13;;;;;;;12.65;10.27;;;24.30;99.90;;;;;;5047909;28;20407;-59
2023/08/20 11:31:41;;;;;;;12.63;10.32;;;24.30;99.90;;;;;;5046387;28;20192;-59
2023/08/20 11:34:10;;;;;;;14.45;9.25;;;24.30;99.90;;;;;;5047208;28;20045;-58
2023/08/20 11:36:42;;;;;;;9.85;8.95;;;24.30;99.90;;;;;;5047615;28;20050;-58
2023/08/20 11:39:08;;;;;;;10.65;8.40;;;24.30;99.90;;;;;;5046334;28;20072;-55
2023/08/20 11:41:39;;;;;;;9.27;8.20;;;24.30;99.90;;;;;;5043068;28;20148;-59
2023/08/20 11:44:08;;;;;;;10.05;7.90;;;24.30;99.90;;;;;;5047315;28;20045;-60
2023/08/20 11:46:43;;;;;;;10.38;7.72;;;24.30;99.90;;;;;;5046722;28;20130;-58
2023/08/20 11:49:11;;;;;;;10.60;7.53;;;24.30;99.90;;;;;;5048822;28;20113;-57
2023/08/20 11:51:43;;;;;;;8.52;7.50;;;24.30;99.90;;;;;;5047074;28;20052;-61
2023/08/20 11:54:11;;;;;;;8.80;7.60;;;24.30;99.90;;;;;;5048745;28;20054;-59
2023/08/20 11:56:48;;;;;;;8.57;7.40;;;24.30;99.90;;;;;;5048835;28;20046;-59
2023/08/20 11:59:16;;;;;;;9.80;7.32;;;24.30;99.90;;;;;;5045674;28;20157;-58
2023/08/20 12:01:43;;;;;;;8.68;6.80;;;24.30;99.90;;;;;;5045754;28;20131;-57
2023/08/20 12:04:10;;;;;;;8.70;7.22;;;24.30;99.90;;;;;;5044717;28;20063;-51
2023/08/20 12:06:38;;;;;;;7.78;6.95;;;24.40;99.90;;;;;;5046423;28;20061;-58
2023/08/20 12:09:24;;;;;;;11.68;8.50;;;24.30;99.90;;;;;;5048265;28;20045;-56
2023/08/20 12:11:57;;;;;;;15.27;8.10;;;24.30;99.90;;;;;;5051250;28;20044;-59
2023/08/20 12:14:24;;;;;;;11.25;7.60;;;24.30;99.90;;;;;;5050949;28;20112;-55
2023/08/20 12:16:51;;;;;;;15.88;8.38;;;24.20;99.90;;;;;;5046797;28;20076;-58
2023/08/20 12:19:18;;;;;;;14.23;8.73;;;24.20;99.90;;;;;;5044463;28;20506;-57
2023/08/20 12:21:44;;;;;;;14.10;9.52;;;24.20;99.90;;;;;;5043905;28;20123;-54
2023/08/20 12:24:11;;;;;;;12.32;8.73;;;24.20;99.90;;;;;;5043469;28;20081;-55
2023/08/20 12:26:39;;;;;;;11.57;9.82;;;24.10;99.90;;;;;;5050135;28;20498;-57
2023/08/20 12:29:05;;;;;;;14.18;10.65;;;24.20;99.90;;;;;;5044619;28;20046;-58
2023/08/20 12:31:32;;;;;;;16.85;11.43;;;24.20;99.90;;;;;;5045039;28;20056;-57
2023/08/20 12:33:59;;;;;;;13.52;10.77;;;24.20;99.90;;;;;;5045817;28;20537;-57
2023/08/20 12:36:26;;;;;;;12.43;11.02;;;24.20;99.90;;;;;;5046474;28;20126;-57
2023/08/20 12:38:52;;;;;;;11.60;9.55;;;24.10;99.90;;;;;;5044026;28;20533;-58
2023/08/20 12:41:20;;;;;;;11.43;8.07;;;24.10;99.90;;;;;;5045442;28;20057;-58
2023/08/20 12:43:46;;;;;;;9.70;7.53;;;24.10;99.90;;;;;;5047214;28;20058;-57